Pagrindinis puslapis
METAR-TAF:

METAR-TAF

Oro uostai :

Šiovdė, Švedija

platuma: 58-27N, ilguma: 013-58E, Aukštis: 98 m

Dabartinis oras

Ataskaita buvo paskelbta 20 minutes, ne 04:50 UTC
Vėjas 8 kt iš Pietvakarių
Temperatūra 14°C
Drėgmė 94%
Slėgis 1014 hPa
Matomumas 10 km arba daugiau

METAR: ESGR 200450Z AUTO 22008KT 9999 BKN015/// 14/13 Q1014

Laikas: 07:10 (05:10 UTC)


TAF: trūkstamas

Orai ataskaitas ir orų prognozės (METAR, TAF).

turimą stotys yra geltonos ir raudonos taškus žemėlapyje.

Perkelti pele per norėdami pamatyti stoties vardą.

Tada spustelėkite, norėdami matyti oro stebėjimo ir prognozės.

Norėdami pakeisti žemėlapį: spustelėkite ant žalios mygtukų su juodo kryžiaus žemyn,; žalią mygtuką su brūkšneliu, jei norite nutolinti; arba žalių rodyklių gretimoms žemėlapius.


METAR-TAF: